sensor_id;sensor_type;location;lat;lon;timestamp;temperature;humidity
14210;DHT22;7188;56.070;12.698;2023-09-12T00:00:54;16.70;99.90
14210;DHT22;7188;56.070;12.698;2023-09-12T00:03:21;16.80;99.90
14210;DHT22;7188;56.070;12.698;2023-09-12T00:05:53;16.70;99.90
14210;DHT22;7188;56.070;12.698;2023-09-12T00:08:19;16.70;99.90
14210;DHT22;7188;56.070;12.698;2023-09-12T00:10:44;16.70;99.90
14210;DHT22;7188;56.070;12.698;2023-09-12T00:13:10;16.70;99.90
14210;DHT22;7188;56.070;12.698;2023-09-12T00:15:36;16.70;99.90
14210;DHT22;7188;56.070;12.698;2023-09-12T00:18:01;16.70;99.90
14210;DHT22;7188;56.070;12.698;2023-09-12T00:20:28;16.70;99.90
14210;DHT22;7188;56.070;12.698;2023-09-12T00:22:53;16.60;99.90
14210;DHT22;7188;56.070;12.698;2023-09-12T00:25:20;16.60;99.90
14210;DHT22;7188;56.070;12.698;2023-09-12T00:27:46;16.60;99.90
14210;DHT22;7188;56.070;12.698;2023-09-12T00:30:14;16.60;99.90
14210;DHT22;7188;56.070;12.698;2023-09-12T00:32:41;16.60;99.90
14210;DHT22;7188;56.070;12.698;2023-09-12T00:35:06;16.50;99.90
14210;DHT22;7188;56.070;12.698;2023-09-12T00:37:32;16.50;99.90
14210;DHT22;7188;56.070;12.698;2023-09-12T00:39:58;16.50;99.90
14210;DHT22;7188;56.070;12.698;2023-09-12T00:42:27;16.50;99.90
14210;DHT22;7188;56.070;12.698;2023-09-12T00:44:52;16.60;99.90
14210;DHT22;7188;56.070;12.698;2023-09-12T00:47:20;16.60;99.90
14210;DHT22;7188;56.070;12.698;2023-09-12T00:49:48;16.60;99.90
14210;DHT22;7188;56.070;12.698;2023-09-12T00:52:14;16.50;99.90
14210;DHT22;7188;56.070;12.698;2023-09-12T00:54:40;16.50;99.90
14210;DHT22;7188;56.070;12.698;2023-09-12T00:57:06;16.50;99.90
14210;DHT22;7188;56.070;12.698;2023-09-12T00:59:33;16.60;99.90
14210;DHT22;7188;56.070;12.698;2023-09-12T01:01:59;16.60;99.90
14210;DHT22;7188;56.070;12.698;2023-09-12T01:04:27;16.60;99.90
14210;DHT22;7188;56.070;12.698;2023-09-12T01:06:52;16.50;99.90
14210;DHT22;7188;56.070;12.698;2023-09-12T01:09:18;16.50;99.90
14210;DHT22;7188;56.070;12.698;2023-09-12T01:11:44;16.60;99.90
14210;DHT22;7188;56.070;12.698;2023-09-12T01:14:10;16.60;99.90
14210;DHT22;7188;56.070;12.698;2023-09-12T01:16:35;16.60;99.90
14210;DHT22;7188;56.070;12.698;2023-09-12T01:19:01;16.60;99.90
14210;DHT22;7188;56.070;12.698;2023-09-12T01:21:38;16.60;99.90
14210;DHT22;7188;56.070;12.698;2023-09-12T01:29:52;16.70;99.90
14210;DHT22;7188;56.070;12.698;2023-09-12T01:32:20;16.70;99.90
14210;DHT22;7188;56.070;12.698;2023-09-12T01:34:45;16.70;99.90
14210;DHT22;7188;56.070;12.698;2023-09-12T01:37:11;16.70;99.90
14210;DHT22;7188;56.070;12.698;2023-09-12T01:39:37;16.80;99.90
14210;DHT22;7188;56.070;12.698;2023-09-12T01:42:04;16.80;99.90
14210;DHT22;7188;56.070;12.698;2023-09-12T01:44:31;16.80;99.90
14210;DHT22;7188;56.070;12.698;2023-09-12T01:47:02;16.80;99.90
14210;DHT22;7188;56.070;12.698;2023-09-12T01:49:28;16.80;99.90
14210;DHT22;7188;56.070;12.698;2023-09-12T01:51:55;16.80;99.90
14210;DHT22;7188;56.070;12.698;2023-09-12T01:54:21;16.80;99.90
14210;DHT22;7188;56.070;12.698;2023-09-12T01:56:48;16.90;99.90
14210;DHT22;7188;56.070;12.698;2023-09-12T01:59:14;16.80;99.90
14210;DHT22;7188;56.070;12.698;2023-09-12T02:01:39;16.80;99.90
14210;DHT22;7188;56.070;12.698;2023-09-12T02:04:07;16.80;99.90
14210;DHT22;7188;56.070;12.698;2023-09-12T02:06:34;16.80;99.90
14210;DHT22;7188;56.070;12.698;2023-09-12T02:09:00;16.80;99.90
14210;DHT22;7188;56.070;12.698;2023-09-12T02:11:27;16.80;99.90
14210;DHT22;7188;56.070;12.698;2023-09-12T02:13:53;16.80;99.90
14210;DHT22;7188;56.070;12.698;2023-09-12T02:16:18;16.80;99.90
14210;DHT22;7188;56.070;12.698;2023-09-12T02:18:44;16.80;99.90
14210;DHT22;7188;56.070;12.698;2023-09-12T02:21:10;16.80;99.90
14210;DHT22;7188;56.070;12.698;2023-09-12T02:23:35;16.80;99.90
14210;DHT22;7188;56.070;12.698;2023-09-12T02:26:01;16.80;99.90
14210;DHT22;7188;56.070;12.698;2023-09-12T02:28:26;16.80;99.90
14210;DHT22;7188;56.070;12.698;2023-09-12T02:30:52;16.80;99.90
14210;DHT22;7188;56.070;12.698;2023-09-12T02:33:18;16.80;99.90
14210;DHT22;7188;56.070;12.698;2023-09-12T02:35:43;16.80;99.90
14210;DHT22;7188;56.070;12.698;2023-09-12T02:38:09;16.90;99.90
14210;DHT22;7188;56.070;12.698;2023-09-12T02:40:35;16.80;99.90
14210;DHT22;7188;56.070;12.698;2023-09-12T02:43:00;16.80;99.90
14210;DHT22;7188;56.070;12.698;2023-09-12T02:45:26;16.80;99.90
14210;DHT22;7188;56.070;12.698;2023-09-12T02:47:51;16.90;99.90
14210;DHT22;7188;56.070;12.698;2023-09-12T02:50:17;16.90;99.90
14210;DHT22;7188;56.070;12.698;2023-09-12T02:52:43;16.90;99.90
14210;DHT22;7188;56.070;12.698;2023-09-12T02:55:09;16.90;99.90
14210;DHT22;7188;56.070;12.698;2023-09-12T02:57:34;16.90;99.90
14210;DHT22;7188;56.070;12.698;2023-09-12T03:00:00;17.00;99.90
14210;DHT22;7188;56.070;12.698;2023-09-12T03:02:26;16.90;99.90
14210;DHT22;7188;56.070;12.698;2023-09-12T03:04:54;17.00;99.90
14210;DHT22;7188;56.070;12.698;2023-09-12T03:07:20;17.00;99.90
14210;DHT22;7188;56.070;12.698;2023-09-12T03:09:48;16.90;99.90
14210;DHT22;7188;56.070;12.698;2023-09-12T03:12:14;17.00;99.90
14210;DHT22;7188;56.070;12.698;2023-09-12T03:14:39;17.00;99.90
14210;DHT22;7188;56.070;12.698;2023-09-12T03:17:05;17.00;99.90
14210;DHT22;7188;56.070;12.698;2023-09-12T03:19:31;17.00;99.90
14210;DHT22;7188;56.070;12.698;2023-09-12T03:21:57;17.00;99.90
14210;DHT22;7188;56.070;12.698;2023-09-12T03:24:22;17.00;99.90
14210;DHT22;7188;56.070;12.698;2023-09-12T03:26:50;17.00;99.90
14210;DHT22;7188;56.070;12.698;2023-09-12T03:29:16;17.00;99.90
14210;DHT22;7188;56.070;12.698;2023-09-12T03:31:42;17.10;99.90
14210;DHT22;7188;56.070;12.698;2023-09-12T03:34:08;17.10;99.90
14210;DHT22;7188;56.070;12.698;2023-09-12T03:36:33;17.10;99.90
14210;DHT22;7188;56.070;12.698;2023-09-12T03:38:59;17.10;99.90
14210;DHT22;7188;56.070;12.698;2023-09-12T03:41:25;17.10;99.90
14210;DHT22;7188;56.070;12.698;2023-09-12T03:43:54;17.10;99.90
14210;DHT22;7188;56.070;12.698;2023-09-12T03:46:21;17.20;99.90
14210;DHT22;7188;56.070;12.698;2023-09-12T03:48:47;17.20;99.90
14210;DHT22;7188;56.070;12.698;2023-09-12T03:51:13;17.20;99.90
14210;DHT22;7188;56.070;12.698;2023-09-12T03:53:39;17.20;99.90
14210;DHT22;7188;56.070;12.698;2023-09-12T03:56:04;17.20;99.90
14210;DHT22;7188;56.070;12.698;2023-09-12T03:58:30;17.30;99.90
14210;DHT22;7188;56.070;12.698;2023-09-12T04:00:56;17.30;99.90
14210;DHT22;7188;56.070;12.698;2023-09-12T04:03:21;17.30;99.90
14210;DHT22;7188;56.070;12.698;2023-09-12T04:05:47;17.30;99.90
14210;DHT22;7188;56.070;12.698;2023-09-12T04:08:13;17.30;99.90
14210;DHT22;7188;56.070;12.698;2023-09-12T04:10:39;17.40;99.90
14210;DHT22;7188;56.070;12.698;2023-09-12T04:13:05;17.50;99.90
14210;DHT22;7188;56.070;12.698;2023-09-12T04:15:30;17.50;99.90
14210;DHT22;7188;56.070;12.698;2023-09-12T04:17:56;17.60;99.90
14210;DHT22;7188;56.070;12.698;2023-09-12T04:20:21;17.60;99.90
14210;DHT22;7188;56.070;12.698;2023-09-12T04:22:47;17.50;99.90
14210;DHT22;7188;56.070;12.698;2023-09-12T04:25:13;17.50;99.90
14210;DHT22;7188;56.070;12.698;2023-09-12T04:27:39;17.50;99.90
14210;DHT22;7188;56.070;12.698;2023-09-12T04:30:05;17.60;99.90
14210;DHT22;7188;56.070;12.698;2023-09-12T04:32:31;17.50;99.90
14210;DHT22;7188;56.070;12.698;2023-09-12T04:34:56;17.50;99.90
14210;DHT22;7188;56.070;12.698;2023-09-12T04:37:22;17.50;99.90
14210;DHT22;7188;56.070;12.698;2023-09-12T04:39:48;17.50;99.90
14210;DHT22;7188;56.070;12.698;2023-09-12T04:42:14;17.50;99.90
14210;DHT22;7188;56.070;12.698;2023-09-12T04:44:40;17.60;99.90
14210;DHT22;7188;56.070;12.698;2023-09-12T04:47:06;17.70;99.90
14210;DHT22;7188;56.070;12.698;2023-09-12T04:49:32;17.80;99.90
14210;DHT22;7188;56.070;12.698;2023-09-12T04:51:57;17.80;99.90
14210;DHT22;7188;56.070;12.698;2023-09-12T04:54:23;17.80;99.90
14210;DHT22;7188;56.070;12.698;2023-09-12T04:56:49;17.80;99.90
14210;DHT22;7188;56.070;12.698;2023-09-12T04:59:14;17.80;99.90
14210;DHT22;7188;56.070;12.698;2023-09-12T05:01:40;17.80;99.90
14210;DHT22;7188;56.070;12.698;2023-09-12T05:04:06;17.80;99.90
14210;DHT22;7188;56.070;12.698;2023-09-12T05:06:31;17.80;99.90
14210;DHT22;7188;56.070;12.698;2023-09-12T05:08:57;17.80;99.90
14210;DHT22;7188;56.070;12.698;2023-09-12T05:11:23;17.80;99.90
14210;DHT22;7188;56.070;12.698;2023-09-12T05:13:50;17.90;99.90
14210;DHT22;7188;56.070;12.698;2023-09-12T05:16:16;17.80;99.90
14210;DHT22;7188;56.070;12.698;2023-09-12T05:18:41;17.80;99.90
14210;DHT22;7188;56.070;12.698;2023-09-12T05:21:07;17.80;99.90
14210;DHT22;7188;56.070;12.698;2023-09-12T05:23:33;17.90;99.90
14210;DHT22;7188;56.070;12.698;2023-09-12T05:25:58;17.90;99.90
14210;DHT22;7188;56.070;12.698;2023-09-12T05:28:24;17.90;99.90
14210;DHT22;7188;56.070;12.698;2023-09-12T05:30:50;17.90;99.90
14210;DHT22;7188;56.070;12.698;2023-09-12T05:33:15;17.90;99.90
14210;DHT22;7188;56.070;12.698;2023-09-12T05:35:41;18.00;99.90
14210;DHT22;7188;56.070;12.698;2023-09-12T05:38:06;17.90;99.90
14210;DHT22;7188;56.070;12.698;2023-09-12T05:40:32;18.00;99.90
14210;DHT22;7188;56.070;12.698;2023-09-12T05:42:58;18.00;99.90
14210;DHT22;7188;56.070;12.698;2023-09-12T05:45:24;18.00;99.90
14210;DHT22;7188;56.070;12.698;2023-09-12T05:47:49;18.00;99.90
14210;DHT22;7188;56.070;12.698;2023-09-12T05:50:16;18.10;99.90
14210;DHT22;7188;56.070;12.698;2023-09-12T05:52:42;18.10;99.90
14210;DHT22;7188;56.070;12.698;2023-09-12T05:55:10;18.10;99.90
14210;DHT22;7188;56.070;12.698;2023-09-12T05:57:35;18.10;99.90
14210;DHT22;7188;56.070;12.698;2023-09-12T06:00:01;18.10;99.90
14210;DHT22;7188;56.070;12.698;2023-09-12T06:02:29;18.10;99.90
14210;DHT22;7188;56.070;12.698;2023-09-12T06:04:55;18.10;99.90
14210;DHT22;7188;56.070;12.698;2023-09-12T06:07:21;18.20;99.90
14210;DHT22;7188;56.070;12.698;2023-09-12T06:09:47;18.20;99.90
14210;DHT22;7188;56.070;12.698;2023-09-12T06:12:12;18.20;99.90
14210;DHT22;7188;56.070;12.698;2023-09-12T06:14:38;18.20;99.90
14210;DHT22;7188;56.070;12.698;2023-09-12T06:17:03;18.20;99.90
14210;DHT22;7188;56.070;12.698;2023-09-12T06:19:29;18.20;99.90
14210;DHT22;7188;56.070;12.698;2023-09-12T06:21:55;18.20;99.90
14210;DHT22;7188;56.070;12.698;2023-09-12T06:24:21;18.20;99.90
14210;DHT22;7188;56.070;12.698;2023-09-12T06:26:48;18.20;99.90
14210;DHT22;7188;56.070;12.698;2023-09-12T06:29:14;18.20;99.90
14210;DHT22;7188;56.070;12.698;2023-09-12T06:31:40;18.20;99.90
14210;DHT22;7188;56.070;12.698;2023-09-12T06:34:09;18.30;99.90
14210;DHT22;7188;56.070;12.698;2023-09-12T06:36:35;18.30;99.90
14210;DHT22;7188;56.070;12.698;2023-09-12T06:39:01;18.30;99.90
14210;DHT22;7188;56.070;12.698;2023-09-12T06:41:27;18.30;99.90
14210;DHT22;7188;56.070;12.698;2023-09-12T06:43:53;18.30;99.90
14210;DHT22;7188;56.070;12.698;2023-09-12T06:46:21;18.30;99.90
14210;DHT22;7188;56.070;12.698;2023-09-12T06:48:46;18.30;99.90
14210;DHT22;7188;56.070;12.698;2023-09-12T06:51:12;18.40;99.90
14210;DHT22;7188;56.070;12.698;2023-09-12T06:53:38;18.40;99.90
14210;DHT22;7188;56.070;12.698;2023-09-12T06:56:04;18.40;99.90
14210;DHT22;7188;56.070;12.698;2023-09-12T06:58:30;18.40;99.90
14210;DHT22;7188;56.070;12.698;2023-09-12T07:01:00;18.40;99.90
14210;DHT22;7188;56.070;12.698;2023-09-12T07:03:26;18.40;99.90
14210;DHT22;7188;56.070;12.698;2023-09-12T07:05:52;18.50;99.90
14210;DHT22;7188;56.070;12.698;2023-09-12T07:08:17;18.50;99.90
14210;DHT22;7188;56.070;12.698;2023-09-12T07:10:46;18.50;99.90
14210;DHT22;7188;56.070;12.698;2023-09-12T07:13:12;18.50;99.90
14210;DHT22;7188;56.070;12.698;2023-09-12T07:15:39;18.50;99.90
14210;DHT22;7188;56.070;12.698;2023-09-12T07:18:05;18.50;99.90
14210;DHT22;7188;56.070;12.698;2023-09-12T07:20:32;18.60;99.90
14210;DHT22;7188;56.070;12.698;2023-09-12T07:22:58;18.60;99.90
14210;DHT22;7188;56.070;12.698;2023-09-12T07:25:23;18.60;99.90
14210;DHT22;7188;56.070;12.698;2023-09-12T07:27:50;18.60;99.90
14210;DHT22;7188;56.070;12.698;2023-09-12T07:30:15;18.70;99.90
14210;DHT22;7188;56.070;12.698;2023-09-12T07:32:41;18.70;99.90
14210;DHT22;7188;56.070;12.698;2023-09-12T07:35:07;18.80;99.90
14210;DHT22;7188;56.070;12.698;2023-09-12T07:37:33;18.90;99.90
14210;DHT22;7188;56.070;12.698;2023-09-12T07:39:59;19.00;99.90
14210;DHT22;7188;56.070;12.698;2023-09-12T07:42:24;18.90;99.90
14210;DHT22;7188;56.070;12.698;2023-09-12T07:44:50;18.90;99.90
14210;DHT22;7188;56.070;12.698;2023-09-12T07:47:17;18.90;99.90
14210;DHT22;7188;56.070;12.698;2023-09-12T07:49:42;19.00;99.90
14210;DHT22;7188;56.070;12.698;2023-09-12T07:52:08;19.00;99.90
14210;DHT22;7188;56.070;12.698;2023-09-12T07:54:34;19.00;99.90
14210;DHT22;7188;56.070;12.698;2023-09-12T07:56:59;19.00;99.90
14210;DHT22;7188;56.070;12.698;2023-09-12T07:59:25;19.10;99.90
14210;DHT22;7188;56.070;12.698;2023-09-12T08:01:51;19.10;99.90
14210;DHT22;7188;56.070;12.698;2023-09-12T08:04:17;19.20;99.90
14210;DHT22;7188;56.070;12.698;2023-09-12T08:06:43;19.20;99.90
14210;DHT22;7188;56.070;12.698;2023-09-12T08:09:09;19.30;99.90
14210;DHT22;7188;56.070;12.698;2023-09-12T08:11:35;19.40;99.90
14210;DHT22;7188;56.070;12.698;2023-09-12T08:14:01;19.40;99.90
14210;DHT22;7188;56.070;12.698;2023-09-12T08:16:27;19.50;99.90
14210;DHT22;7188;56.070;12.698;2023-09-12T08:18:53;19.50;99.90
14210;DHT22;7188;56.070;12.698;2023-09-12T08:21:18;19.60;99.90
14210;DHT22;7188;56.070;12.698;2023-09-12T08:23:44;19.70;99.90
14210;DHT22;7188;56.070;12.698;2023-09-12T08:26:10;19.70;99.90
14210;DHT22;7188;56.070;12.698;2023-09-12T08:28:36;19.80;99.90
14210;DHT22;7188;56.070;12.698;2023-09-12T08:31:03;19.80;99.90
14210;DHT22;7188;56.070;12.698;2023-09-12T08:33:29;19.70;99.90
14210;DHT22;7188;56.070;12.698;2023-09-12T08:35:54;19.70;99.90
14210;DHT22;7188;56.070;12.698;2023-09-12T08:38:20;19.80;99.90
14210;DHT22;7188;56.070;12.698;2023-09-12T08:40:52;19.80;99.90
14210;DHT22;7188;56.070;12.698;2023-09-12T08:43:18;19.80;99.90
14210;DHT22;7188;56.070;12.698;2023-09-12T08:45:44;19.90;99.90
14210;DHT22;7188;56.070;12.698;2023-09-12T08:48:11;20.00;99.90
14210;DHT22;7188;56.070;12.698;2023-09-12T08:50:38;20.00;99.90
14210;DHT22;7188;56.070;12.698;2023-09-12T08:53:04;20.00;99.90
14210;DHT22;7188;56.070;12.698;2023-09-12T08:55:31;20.10;99.90
14210;DHT22;7188;56.070;12.698;2023-09-12T08:57:59;20.20;99.90
14210;DHT22;7188;56.070;12.698;2023-09-12T09:00:25;20.20;99.90
14210;DHT22;7188;56.070;12.698;2023-09-12T09:02:52;20.30;99.90
14210;DHT22;7188;56.070;12.698;2023-09-12T09:05:20;20.40;99.90
14210;DHT22;7188;56.070;12.698;2023-09-12T09:07:48;20.50;99.90
14210;DHT22;7188;56.070;12.698;2023-09-12T09:10:16;20.40;99.90
14210;DHT22;7188;56.070;12.698;2023-09-12T09:12:44;20.40;99.90
14210;DHT22;7188;56.070;12.698;2023-09-12T09:15:23;20.40;99.90
14210;DHT22;7188;56.070;12.698;2023-09-12T09:17:51;20.40;99.90
14210;DHT22;7188;56.070;12.698;2023-09-12T09:20:31;20.40;99.90
14210;DHT22;7188;56.070;12.698;2023-09-12T09:23:00;20.40;99.90
14210;DHT22;7188;56.070;12.698;2023-09-12T09:25:27;20.50;99.90
14210;DHT22;7188;56.070;12.698;2023-09-12T09:27:53;20.50;99.90
14210;DHT22;7188;56.070;12.698;2023-09-12T09:30:39;20.60;99.90
14210;DHT22;7188;56.070;12.698;2023-09-12T09:33:05;20.60;99.90
14210;DHT22;7188;56.070;12.698;2023-09-12T09:35:31;20.70;99.90
14210;DHT22;7188;56.070;12.698;2023-09-12T09:37:57;20.80;99.90
14210;DHT22;7188;56.070;12.698;2023-09-12T09:40:23;21.00;99.90
14210;DHT22;7188;56.070;12.698;2023-09-12T09:42:57;21.10;99.90
14210;DHT22;7188;56.070;12.698;2023-09-12T09:45:24;21.20;99.90
14210;DHT22;7188;56.070;12.698;2023-09-12T09:47:50;21.30;99.90
14210;DHT22;7188;56.070;12.698;2023-09-12T09:50:17;21.50;99.90
14210;DHT22;7188;56.070;12.698;2023-09-12T09:52:43;21.50;99.90
14210;DHT22;7188;56.070;12.698;2023-09-12T09:55:15;21.60;99.90
14210;DHT22;7188;56.070;12.698;2023-09-12T09:57:41;21.60;99.90
14210;DHT22;7188;56.070;12.698;2023-09-12T10:00:07;21.70;99.90
14210;DHT22;7188;56.070;12.698;2023-09-12T10:02:37;21.80;99.90
14210;DHT22;7188;56.070;12.698;2023-09-12T10:05:05;21.80;99.90
14210;DHT22;7188;56.070;12.698;2023-09-12T10:07:32;21.80;99.90
14210;DHT22;7188;56.070;12.698;2023-09-12T10:10:02;21.80;99.90
14210;DHT22;7188;56.070;12.698;2023-09-12T10:12:29;21.80;99.90
14210;DHT22;7188;56.070;12.698;2023-09-12T10:14:58;21.80;99.90
14210;DHT22;7188;56.070;12.698;2023-09-12T10:17:28;21.80;99.90
14210;DHT22;7188;56.070;12.698;2023-09-12T10:19:59;21.80;99.90
14210;DHT22;7188;56.070;12.698;2023-09-12T10:22:35;21.80;99.90
14210;DHT22;7188;56.070;12.698;2023-09-12T10:25:03;21.80;99.90
14210;DHT22;7188;56.070;12.698;2023-09-12T10:27:30;21.80;99.90
14210;DHT22;7188;56.070;12.698;2023-09-12T10:29:57;21.70;99.90
14210;DHT22;7188;56.070;12.698;2023-09-12T10:32:25;21.70;99.90
14210;DHT22;7188;56.070;12.698;2023-09-12T10:34:52;21.70;99.90
14210;DHT22;7188;56.070;12.698;2023-09-12T10:37:22;21.60;99.90
14210;DHT22;7188;56.070;12.698;2023-09-12T10:39:49;21.50;99.90
14210;DHT22;7188;56.070;12.698;2023-09-12T10:42:16;21.50;99.90
14210;DHT22;7188;56.070;12.698;2023-09-12T10:44:43;21.40;99.90
14210;DHT22;7188;56.070;12.698;2023-09-12T10:47:10;21.40;99.90
14210;DHT22;7188;56.070;12.698;2023-09-12T10:49:37;21.40;99.90
14210;DHT22;7188;56.070;12.698;2023-09-12T10:52:03;21.50;99.90
14210;DHT22;7188;56.070;12.698;2023-09-12T10:54:39;21.60;99.90
14210;DHT22;7188;56.070;12.698;2023-09-12T10:57:09;21.70;99.90
14210;DHT22;7188;56.070;12.698;2023-09-12T11:02:35;22.00;99.90
14210;DHT22;7188;56.070;12.698;2023-09-12T11:05:06;22.10;99.90
14210;DHT22;7188;56.070;12.698;2023-09-12T11:12:46;22.50;99.90
14210;DHT22;7188;56.070;12.698;2023-09-12T11:15:13;22.40;99.90
14210;DHT22;7188;56.070;12.698;2023-09-12T11:17:42;22.40;99.90
14210;DHT22;7188;56.070;12.698;2023-09-12T11:20:09;22.40;99.90
14210;DHT22;7188;56.070;12.698;2023-09-12T11:22:40;22.30;99.90
14210;DHT22;7188;56.070;12.698;2023-09-12T11:25:26;22.20;99.90
14210;DHT22;7188;56.070;12.698;2023-09-12T11:32:46;21.90;99.90
14210;DHT22;7188;56.070;12.698;2023-09-12T11:35:13;21.90;99.90
14210;DHT22;7188;56.070;12.698;2023-09-12T11:37:39;21.90;99.90
14210;DHT22;7188;56.070;12.698;2023-09-12T11:40:26;21.80;99.90
14210;DHT22;7188;56.070;12.698;2023-09-12T11:43:06;21.60;99.90
14210;DHT22;7188;56.070;12.698;2023-09-12T11:45:32;21.50;99.90
14210;DHT22;7188;56.070;12.698;2023-09-12T11:47:58;21.50;99.90
14210;DHT22;7188;56.070;12.698;2023-09-12T11:50:30;21.50;99.90
14210;DHT22;7188;56.070;12.698;2023-09-12T11:55:25;21.40;99.90
14210;DHT22;7188;56.070;12.698;2023-09-12T11:57:51;21.40;99.90
14210;DHT22;7188;56.070;12.698;2023-09-12T12:00:18;21.40;99.90
14210;DHT22;7188;56.070;12.698;2023-09-12T12:02:45;21.40;99.90
14210;DHT22;7188;56.070;12.698;2023-09-12T12:05:11;21.30;99.90
14210;DHT22;7188;56.070;12.698;2023-09-12T12:10:50;21.30;99.90
14210;DHT22;7188;56.070;12.698;2023-09-12T12:13:19;21.30;99.90
14210;DHT22;7188;56.070;12.698;2023-09-12T12:15:45;21.30;99.90
14210;DHT22;7188;56.070;12.698;2023-09-12T12:18:11;21.30;99.90
14210;DHT22;7188;56.070;12.698;2023-09-12T12:20:37;21.40;99.90
14210;DHT22;7188;56.070;12.698;2023-09-12T12:23:03;21.40;99.90
14210;DHT22;7188;56.070;12.698;2023-09-12T12:25:32;21.40;99.90
14210;DHT22;7188;56.070;12.698;2023-09-12T12:27:59;21.50;99.90
14210;DHT22;7188;56.070;12.698;2023-09-12T12:30:25;21.60;99.90
14210;DHT22;7188;56.070;12.698;2023-09-12T12:32:51;21.80;99.90
14210;DHT22;7188;56.070;12.698;2023-09-12T12:35:21;22.00;99.90
14210;DHT22;7188;56.070;12.698;2023-09-12T12:37:51;22.20;99.90
14210;DHT22;7188;56.070;12.698;2023-09-12T12:40:17;22.30;99.90
14210;DHT22;7188;56.070;12.698;2023-09-12T12:42:44;22.40;99.90
14210;DHT22;7188;56.070;12.698;2023-09-12T12:45:16;22.40;99.90
14210;DHT22;7188;56.070;12.698;2023-09-12T12:47:43;22.40;99.90
14210;DHT22;7188;56.070;12.698;2023-09-12T12:50:15;22.40;99.90
14210;DHT22;7188;56.070;12.698;2023-09-12T12:52:41;22.30;99.90
14210;DHT22;7188;56.070;12.698;2023-09-12T12:55:10;22.20;99.90
14210;DHT22;7188;56.070;12.698;2023-09-12T12:57:37;22.00;99.90
14210;DHT22;7188;56.070;12.698;2023-09-12T13:00:09;21.80;99.90
14210;DHT22;7188;56.070;12.698;2023-09-12T13:02:40;21.40;99.90
14210;DHT22;7188;56.070;12.698;2023-09-12T13:07:47;21.00;99.90
14210;DHT22;7188;56.070;12.698;2023-09-12T13:10:12;20.90;99.90
14210;DHT22;7188;56.070;12.698;2023-09-12T13:12:38;20.90;99.90
14210;DHT22;7188;56.070;12.698;2023-09-12T13:15:04;20.90;99.90
14210;DHT22;7188;56.070;12.698;2023-09-12T13:17:30;20.90;99.90
14210;DHT22;7188;56.070;12.698;2023-09-12T13:19:56;21.00;99.90
14210;DHT22;7188;56.070;12.698;2023-09-12T13:22:22;21.00;99.90
14210;DHT22;7188;56.070;12.698;2023-09-12T13:24:47;21.10;99.90
14210;DHT22;7188;56.070;12.698;2023-09-12T13:27:13;21.00;99.90
14210;DHT22;7188;56.070;12.698;2023-09-12T13:29:39;21.00;99.90
14210;DHT22;7188;56.070;12.698;2023-09-12T13:32:05;21.00;99.90
14210;DHT22;7188;56.070;12.698;2023-09-12T13:34:31;21.00;99.90
14210;DHT22;7188;56.070;12.698;2023-09-12T13:36:56;21.00;99.90
14210;DHT22;7188;56.070;12.698;2023-09-12T13:39:24;21.00;99.90
14210;DHT22;7188;56.070;12.698;2023-09-12T13:41:49;21.10;99.90
14210;DHT22;7188;56.070;12.698;2023-09-12T13:44:16;21.00;99.90
14210;DHT22;7188;56.070;12.698;2023-09-12T13:46:41;21.00;99.90
14210;DHT22;7188;56.070;12.698;2023-09-12T13:49:09;20.90;99.90
14210;DHT22;7188;56.070;12.698;2023-09-12T13:51:35;20.90;99.90
14210;DHT22;7188;56.070;12.698;2023-09-12T13:54:01;20.80;99.90
14210;DHT22;7188;56.070;12.698;2023-09-12T13:56:28;20.70;99.90
14210;DHT22;7188;56.070;12.698;2023-09-12T13:58:54;20.80;99.90
14210;DHT22;7188;56.070;12.698;2023-09-12T14:01:19;20.90;99.90
14210;DHT22;7188;56.070;12.698;2023-09-12T14:03:45;21.00;99.90
14210;DHT22;7188;56.070;12.698;2023-09-12T14:06:11;21.10;99.90
14210;DHT22;7188;56.070;12.698;2023-09-12T14:08:36;21.10;99.90
14210;DHT22;7188;56.070;12.698;2023-09-12T14:11:02;21.20;99.90
14210;DHT22;7188;56.070;12.698;2023-09-12T14:13:28;21.20;99.90
14210;DHT22;7188;56.070;12.698;2023-09-12T14:15:53;21.20;99.90
14210;DHT22;7188;56.070;12.698;2023-09-12T14:18:19;21.20;99.90
14210;DHT22;7188;56.070;12.698;2023-09-12T14:20:46;21.20;99.90
14210;DHT22;7188;56.070;12.698;2023-09-12T14:23:12;21.20;99.90
14210;DHT22;7188;56.070;12.698;2023-09-12T14:25:37;21.30;99.90
14210;DHT22;7188;56.070;12.698;2023-09-12T14:28:03;21.30;99.90
14210;DHT22;7188;56.070;12.698;2023-09-12T14:30:30;21.30;79.60
14210;DHT22;7188;56.070;12.698;2023-09-12T14:33:01;21.20;50.20
14210;DHT22;7188;56.070;12.698;2023-09-12T14:35:28;21.10;1.00
14210;DHT22;7188;56.070;12.698;2023-09-12T14:37:53;21.10;1.00
14210;DHT22;7188;56.070;12.698;2023-09-12T14:40:19;21.00;55.70
14210;DHT22;7188;56.070;12.698;2023-09-12T14:42:45;21.10;1.00
14210;DHT22;7188;56.070;12.698;2023-09-12T14:45:10;21.10;1.00
14210;DHT22;7188;56.070;12.698;2023-09-12T14:47:36;21.10;1.00
14210;DHT22;7188;56.070;12.698;2023-09-12T14:50:02;21.10;1.00
14210;DHT22;7188;56.070;12.698;2023-09-12T14:52:28;21.00;1.00
14210;DHT22;7188;56.070;12.698;2023-09-12T14:54:53;21.00;1.00
14210;DHT22;7188;56.070;12.698;2023-09-12T14:57:19;20.90;1.00
14210;DHT22;7188;56.070;12.698;2023-09-12T14:59:45;20.90;39.30
14210;DHT22;7188;56.070;12.698;2023-09-12T15:02:11;20.90;91.40
14210;DHT22;7188;56.070;12.698;2023-09-12T15:04:37;20.90;64.10
14210;DHT22;7188;56.070;12.698;2023-09-12T15:07:02;20.90;13.70
14210;DHT22;7188;56.070;12.698;2023-09-12T15:09:29;20.90;10.50
14210;DHT22;7188;56.070;12.698;2023-09-12T15:11:54;20.80;11.50
14210;DHT22;7188;56.070;12.698;2023-09-12T15:14:20;20.80;1.00
14210;DHT22;7188;56.070;12.698;2023-09-12T15:16:46;20.70;11.60
14210;DHT22;7188;56.070;12.698;2023-09-12T15:19:12;20.70;98.90
14210;DHT22;7188;56.070;12.698;2023-09-12T15:21:38;20.80;99.90
14210;DHT22;7188;56.070;12.698;2023-09-12T15:24:03;20.70;99.90
14210;DHT22;7188;56.070;12.698;2023-09-12T15:26:29;20.70;99.90
14210;DHT22;7188;56.070;12.698;2023-09-12T15:28:55;20.70;99.90
14210;DHT22;7188;56.070;12.698;2023-09-12T15:31:20;20.70;99.90
14210;DHT22;7188;56.070;12.698;2023-09-12T15:33:46;20.70;99.90
14210;DHT22;7188;56.070;12.698;2023-09-12T15:36:12;20.60;99.90
14210;DHT22;7188;56.070;12.698;2023-09-12T15:38:37;20.50;99.90
14210;DHT22;7188;56.070;12.698;2023-09-12T15:41:03;20.60;99.90
14210;DHT22;7188;56.070;12.698;2023-09-12T15:43:33;20.50;99.90
14210;DHT22;7188;56.070;12.698;2023-09-12T15:45:59;20.50;99.90
14210;DHT22;7188;56.070;12.698;2023-09-12T15:48:25;20.40;99.90
14210;DHT22;7188;56.070;12.698;2023-09-12T15:50:51;20.40;99.90
14210;DHT22;7188;56.070;12.698;2023-09-12T15:53:16;20.40;99.90
14210;DHT22;7188;56.070;12.698;2023-09-12T15:55:42;20.30;99.90